sensor_id;sensor_type;location;lat;lon;timestamp;P1;durP1;ratioP1;P2;durP2;ratioP2
40815;SDS011;26535;48.788;9.214;2023-03-14T00:00:06;1.00;;;0.30;;
40815;SDS011;26535;48.788;9.214;2023-03-14T00:02:35;2.13;;;0.30;;
40815;SDS011;26535;48.788;9.214;2023-03-14T00:05:00;0.98;;;0.30;;
40815;SDS011;26535;48.788;9.214;2023-03-14T00:07:31;1.50;;;0.30;;
40815;SDS011;26535;48.788;9.214;2023-03-14T00:10:00;1.35;;;0.30;;
40815;SDS011;26535;48.788;9.214;2023-03-14T00:12:29;1.98;;;0.30;;
40815;SDS011;26535;48.788;9.214;2023-03-14T00:14:55;1.02;;;0.40;;
40815;SDS011;26535;48.788;9.214;2023-03-14T00:17:20;2.67;;;0.47;;
40815;SDS011;26535;48.788;9.214;2023-03-14T00:19:46;1.40;;;0.30;;
40815;SDS011;26535;48.788;9.214;2023-03-14T00:22:12;1.65;;;0.30;;
40815;SDS011;26535;48.788;9.214;2023-03-14T00:24:37;1.30;;;0.47;;
40815;SDS011;26535;48.788;9.214;2023-03-14T00:27:03;2.15;;;0.28;;
40815;SDS011;26535;48.788;9.214;2023-03-14T00:29:29;1.55;;;0.40;;
40815;SDS011;26535;48.788;9.214;2023-03-14T06:02:37;2.45;;;0.43;;
40815;SDS011;26535;48.788;9.214;2023-03-14T06:05:12;2.65;;;0.40;;
40815;SDS011;26535;48.788;9.214;2023-03-14T06:07:38;2.90;;;0.50;;
40815;SDS011;26535;48.788;9.214;2023-03-14T06:10:05;3.30;;;0.50;;
40815;SDS011;26535;48.788;9.214;2023-03-14T06:12:31;4.35;;;0.63;;
40815;SDS011;26535;48.788;9.214;2023-03-14T06:14:57;3.05;;;0.60;;
40815;SDS011;26535;48.788;9.214;2023-03-14T06:17:23;5.05;;;0.77;;
40815;SDS011;26535;48.788;9.214;2023-03-14T06:19:55;3.60;;;0.43;;
40815;SDS011;26535;48.788;9.214;2023-03-14T06:22:22;2.25;;;0.60;;
40815;SDS011;26535;48.788;9.214;2023-03-14T06:24:47;2.95;;;1.15;;
40815;SDS011;26535;48.788;9.214;2023-03-14T06:27:15;2.90;;;0.47;;
40815;SDS011;26535;48.788;9.214;2023-03-14T06:29:41;4.18;;;0.52;;
40815;SDS011;26535;48.788;9.214;2023-03-14T06:32:07;3.88;;;0.70;;
40815;SDS011;26535;48.788;9.214;2023-03-14T06:34:32;3.17;;;0.65;;
40815;SDS011;26535;48.788;9.214;2023-03-14T06:36:58;4.03;;;0.70;;
40815;SDS011;26535;48.788;9.214;2023-03-14T06:39:25;3.17;;;0.73;;
40815;SDS011;26535;48.788;9.214;2023-03-14T06:41:59;2.40;;;0.47;;
40815;SDS011;26535;48.788;9.214;2023-03-14T06:44:25;1.23;;;0.30;;
40815;SDS011;26535;48.788;9.214;2023-03-14T06:46:51;3.60;;;0.45;;
40815;SDS011;26535;48.788;9.214;2023-03-14T06:49:17;4.05;;;0.60;;
40815;SDS011;26535;48.788;9.214;2023-03-14T06:51:43;3.80;;;0.55;;
40815;SDS011;26535;48.788;9.214;2023-03-14T06:54:10;2.13;;;0.50;;
40815;SDS011;26535;48.788;9.214;2023-03-14T06:56:36;1.85;;;0.45;;
40815;SDS011;26535;48.788;9.214;2023-03-14T06:59:01;1.90;;;0.30;;
40815;SDS011;26535;48.788;9.214;2023-03-14T07:01:30;3.70;;;0.50;;
40815;SDS011;26535;48.788;9.214;2023-03-14T07:04:10;2.00;;;0.40;;
40815;SDS011;26535;48.788;9.214;2023-03-14T07:06:39;1.75;;;0.30;;
40815;SDS011;26535;48.788;9.214;2023-03-14T07:09:12;2.90;;;0.30;;
40815;SDS011;26535;48.788;9.214;2023-03-14T07:11:43;2.60;;;0.40;;
40815;SDS011;26535;48.788;9.214;2023-03-14T07:14:09;2.85;;;0.28;;
40815;SDS011;26535;48.788;9.214;2023-03-14T07:16:35;1.55;;;0.20;;
40815;SDS011;26535;48.788;9.214;2023-03-14T07:19:01;2.03;;;0.15;;
40815;SDS011;26535;48.788;9.214;2023-03-14T07:21:27;3.17;;;0.28;;
40815;SDS011;26535;48.788;9.214;2023-03-14T07:23:53;2.95;;;0.38;;
40815;SDS011;26535;48.788;9.214;2023-03-14T07:26:20;1.50;;;0.20;;
40815;SDS011;26535;48.788;9.214;2023-03-14T07:28:49;1.52;;;0.20;;
40815;SDS011;26535;48.788;9.214;2023-03-14T07:31:17;1.88;;;0.30;;
40815;SDS011;26535;48.788;9.214;2023-03-14T07:33:43;1.00;;;0.20;;
40815;SDS011;26535;48.788;9.214;2023-03-14T07:36:09;2.00;;;0.20;;
40815;SDS011;26535;48.788;9.214;2023-03-14T07:38:37;2.55;;;0.20;;
40815;SDS011;26535;48.788;9.214;2023-03-14T07:41:30;1.40;;;0.30;;
40815;SDS011;26535;48.788;9.214;2023-03-14T07:44:15;2.30;;;0.20;;
40815;SDS011;26535;48.788;9.214;2023-03-14T07:46:41;1.10;;;0.20;;
40815;SDS011;26535;48.788;9.214;2023-03-14T07:49:07;1.65;;;0.20;;
40815;SDS011;26535;48.788;9.214;2023-03-14T07:51:33;2.35;;;0.20;;
40815;SDS011;26535;48.788;9.214;2023-03-14T07:53:58;3.72;;;0.22;;
40815;SDS011;26535;48.788;9.214;2023-03-14T07:56:24;0.93;;;0.70;;
40815;SDS011;26535;48.788;9.214;2023-03-14T07:58:49;2.17;;;0.30;;
40815;SDS011;26535;48.788;9.214;2023-03-14T08:01:15;1.13;;;0.30;;
40815;SDS011;26535;48.788;9.214;2023-03-14T08:03:41;1.13;;;0.10;;
40815;SDS011;26535;48.788;9.214;2023-03-14T08:06:06;1.23;;;0.20;;
40815;SDS011;26535;48.788;9.214;2023-03-14T08:08:32;1.20;;;0.30;;
40815;SDS011;26535;48.788;9.214;2023-03-14T08:11:02;0.90;;;0.20;;
40815;SDS011;26535;48.788;9.214;2023-03-14T08:13:29;1.38;;;0.30;;
40815;SDS011;26535;48.788;9.214;2023-03-14T08:15:54;1.00;;;0.20;;
40815;SDS011;26535;48.788;9.214;2023-03-14T08:18:20;1.02;;;0.20;;
40815;SDS011;26535;48.788;9.214;2023-03-14T08:20:46;2.20;;;0.20;;
40815;SDS011;26535;48.788;9.214;2023-03-14T08:23:11;2.42;;;0.25;;
40815;SDS011;26535;48.788;9.214;2023-03-14T08:25:37;2.30;;;0.20;;
40815;SDS011;26535;48.788;9.214;2023-03-14T08:28:03;1.75;;;0.30;;
40815;SDS011;26535;48.788;9.214;2023-03-14T08:30:29;2.17;;;0.20;;
40815;SDS011;26535;48.788;9.214;2023-03-14T08:32:58;1.10;;;0.10;;
40815;SDS011;26535;48.788;9.214;2023-03-14T08:35:24;0.98;;;0.28;;
40815;SDS011;26535;48.788;9.214;2023-03-14T08:37:51;2.40;;;0.60;;
40815;SDS011;26535;48.788;9.214;2023-03-14T08:40:17;1.60;;;0.30;;
40815;SDS011;26535;48.788;9.214;2023-03-14T08:42:43;0.77;;;0.10;;
40815;SDS011;26535;48.788;9.214;2023-03-14T08:45:11;2.63;;;1.00;;
40815;SDS011;26535;48.788;9.214;2023-03-14T08:47:37;2.35;;;0.20;;
40815;SDS011;26535;48.788;9.214;2023-03-14T08:50:04;1.13;;;0.30;;
40815;SDS011;26535;48.788;9.214;2023-03-14T08:52:30;1.63;;;0.20;;
40815;SDS011;26535;48.788;9.214;2023-03-14T08:54:56;0.80;;;0.10;;
40815;SDS011;26535;48.788;9.214;2023-03-14T08:57:22;3.40;;;0.22;;
40815;SDS011;26535;48.788;9.214;2023-03-14T08:59:52;1.45;;;0.13;;
40815;SDS011;26535;48.788;9.214;2023-03-14T09:02:20;1.63;;;0.10;;
40815;SDS011;26535;48.788;9.214;2023-03-14T09:04:46;0.63;;;0.10;;
40815;SDS011;26535;48.788;9.214;2023-03-14T09:07:11;0.85;;;0.10;;
40815;SDS011;26535;48.788;9.214;2023-03-14T09:09:37;0.60;;;0.13;;
40815;SDS011;26535;48.788;9.214;2023-03-14T09:12:03;0.35;;;0.10;;
40815;SDS011;26535;48.788;9.214;2023-03-14T09:14:30;1.45;;;0.10;;
40815;SDS011;26535;48.788;9.214;2023-03-14T09:16:56;0.65;;;0.10;;
40815;SDS011;26535;48.788;9.214;2023-03-14T09:19:22;0.70;;;0.10;;
40815;SDS011;26535;48.788;9.214;2023-03-14T09:21:48;0.82;;;0.17;;
40815;SDS011;26535;48.788;9.214;2023-03-14T09:24:15;0.55;;;0.10;;
40815;SDS011;26535;48.788;9.214;2023-03-14T09:26:41;1.73;;;0.20;;
40815;SDS011;26535;48.788;9.214;2023-03-14T09:29:07;0.25;;;0.10;;
40815;SDS011;26535;48.788;9.214;2023-03-14T09:31:33;0.30;;;0.10;;
40815;SDS011;26535;48.788;9.214;2023-03-14T09:33:58;1.27;;;0.20;;
40815;SDS011;26535;48.788;9.214;2023-03-14T09:36:25;1.15;;;0.32;;
40815;SDS011;26535;48.788;9.214;2023-03-14T09:38:51;0.70;;;0.10;;
40815;SDS011;26535;48.788;9.214;2023-03-14T09:43:59;0.52;;;0.10;;
40815;SDS011;26535;48.788;9.214;2023-03-14T09:46:34;0.60;;;0.10;;
40815;SDS011;26535;48.788;9.214;2023-03-14T09:49:01;1.05;;;0.10;;
40815;SDS011;26535;48.788;9.214;2023-03-14T09:51:33;0.75;;;0.10;;
40815;SDS011;26535;48.788;9.214;2023-03-14T09:53:59;0.70;;;0.10;;
40815;SDS011;26535;48.788;9.214;2023-03-14T09:56:26;0.73;;;0.10;;
40815;SDS011;26535;48.788;9.214;2023-03-14T09:58:57;0.25;;;0.10;;
40815;SDS011;26535;48.788;9.214;2023-03-14T10:01:26;0.32;;;0.00;;
40815;SDS011;26535;48.788;9.214;2023-03-14T10:03:55;0.80;;;0.17;;
40815;SDS011;26535;48.788;9.214;2023-03-14T10:06:24;0.25;;;0.00;;
40815;SDS011;26535;48.788;9.214;2023-03-14T10:08:52;0.40;;;0.10;;
40815;SDS011;26535;48.788;9.214;2023-03-14T10:11:20;0.70;;;0.10;;
40815;SDS011;26535;48.788;9.214;2023-03-14T10:14:06;0.98;;;0.10;;
40815;SDS011;26535;48.788;9.214;2023-03-14T10:16:35;1.90;;;0.10;;
40815;SDS011;26535;48.788;9.214;2023-03-14T10:19:06;0.10;;;0.00;;
40815;SDS011;26535;48.788;9.214;2023-03-14T10:21:39;0.40;;;0.00;;
40815;SDS011;26535;48.788;9.214;2023-03-14T10:24:07;0.30;;;0.10;;
40815;SDS011;26535;48.788;9.214;2023-03-14T10:26:47;1.38;;;0.10;;
40815;SDS011;26535;48.788;9.214;2023-03-14T10:29:14;0.45;;;0.13;;
40815;SDS011;26535;48.788;9.214;2023-03-14T10:31:48;0.57;;;0.10;;
40815;SDS011;26535;48.788;9.214;2023-03-14T10:34:38;0.75;;;0.10;;
40815;SDS011;26535;48.788;9.214;2023-03-14T10:37:14;0.40;;;0.10;;
40815;SDS011;26535;48.788;9.214;2023-03-14T10:39:51;0.63;;;0.10;;
40815;SDS011;26535;48.788;9.214;2023-03-14T10:45:15;0.60;;;0.03;;
40815;SDS011;26535;48.788;9.214;2023-03-14T10:47:53;0.20;;;0.05;;
40815;SDS011;26535;48.788;9.214;2023-03-14T10:50:26;0.50;;;0.10;;
40815;SDS011;26535;48.788;9.214;2023-03-14T10:52:54;1.17;;;0.30;;
40815;SDS011;26535;48.788;9.214;2023-03-14T10:55:22;0.20;;;0.00;;
40815;SDS011;26535;48.788;9.214;2023-03-14T10:57:49;1.50;;;0.10;;
40815;SDS011;26535;48.788;9.214;2023-03-14T11:00:16;0.73;;;0.10;;
40815;SDS011;26535;48.788;9.214;2023-03-14T11:02:49;0.45;;;0.10;;
40815;SDS011;26535;48.788;9.214;2023-03-14T11:08:07;1.92;;;0.25;;
40815;SDS011;26535;48.788;9.214;2023-03-14T11:10:38;1.08;;;0.20;;
40815;SDS011;26535;48.788;9.214;2023-03-14T11:13:27;0.20;;;0.03;;
40815;SDS011;26535;48.788;9.214;2023-03-14T11:21:56;2.00;;;0.10;;
40815;SDS011;26535;48.788;9.214;2023-03-14T11:32:44;1.35;;;0.20;;
40815;SDS011;26535;48.788;9.214;2023-03-14T11:35:16;1.13;;;0.20;;
40815;SDS011;26535;48.788;9.214;2023-03-14T11:37:47;1.67;;;0.10;;
40815;SDS011;26535;48.788;9.214;2023-03-14T11:40:25;1.25;;;0.10;;
40815;SDS011;26535;48.788;9.214;2023-03-14T11:43:00;1.05;;;0.10;;
40815;SDS011;26535;48.788;9.214;2023-03-14T11:45:37;2.53;;;0.10;;
40815;SDS011;26535;48.788;9.214;2023-03-14T11:51:02;0.38;;;0.10;;
40815;SDS011;26535;48.788;9.214;2023-03-14T11:56:09;0.50;;;0.10;;
40815;SDS011;26535;48.788;9.214;2023-03-14T11:58:42;0.82;;;0.20;;
40815;SDS011;26535;48.788;9.214;2023-03-14T12:01:17;0.47;;;0.10;;
40815;SDS011;26535;48.788;9.214;2023-03-14T12:04:28;1.10;;;0.25;;
40815;SDS011;26535;48.788;9.214;2023-03-14T12:06:48;1.00;;;0.22;;
40815;SDS011;26535;48.788;9.214;2023-03-14T12:09:19;2.03;;;0.30;;
40815;SDS011;26535;48.788;9.214;2023-03-14T12:11:50;0.70;;;0.20;;
40815;SDS011;26535;48.788;9.214;2023-03-14T12:14:26;2.42;;;0.10;;
40815;SDS011;26535;48.788;9.214;2023-03-14T12:16:57;0.85;;;0.10;;
40815;SDS011;26535;48.788;9.214;2023-03-14T12:19:30;0.52;;;0.10;;
40815;SDS011;26535;48.788;9.214;2023-03-14T12:25:06;0.43;;;0.00;;
40815;SDS011;26535;48.788;9.214;2023-03-14T12:28:03;1.02;;;0.10;;
40815;SDS011;26535;48.788;9.214;2023-03-14T12:30:49;0.73;;;0.10;;
40815;SDS011;26535;48.788;9.214;2023-03-14T12:36:03;0.32;;;0.10;;
40815;SDS011;26535;48.788;9.214;2023-03-14T12:41:04;0.40;;;0.10;;
40815;SDS011;26535;48.788;9.214;2023-03-14T12:43:40;0.40;;;0.10;;
40815;SDS011;26535;48.788;9.214;2023-03-14T12:46:07;0.40;;;0.10;;
40815;SDS011;26535;48.788;9.214;2023-03-14T12:48:33;1.83;;;0.10;;
40815;SDS011;26535;48.788;9.214;2023-03-14T12:51:03;1.05;;;0.20;;
40815;SDS011;26535;48.788;9.214;2023-03-14T13:04:33;1.35;;;0.22;;
40815;SDS011;26535;48.788;9.214;2023-03-14T13:07:01;0.80;;;0.27;;
40815;SDS011;26535;48.788;9.214;2023-03-14T13:12:00;1.38;;;0.20;;
40815;SDS011;26535;48.788;9.214;2023-03-14T13:14:33;2.13;;;0.20;;
40815;SDS011;26535;48.788;9.214;2023-03-14T13:17:00;1.33;;;0.15;;
40815;SDS011;26535;48.788;9.214;2023-03-14T13:19:27;1.95;;;0.20;;
40815;SDS011;26535;48.788;9.214;2023-03-14T13:22:02;1.80;;;0.20;;
40815;SDS011;26535;48.788;9.214;2023-03-14T13:24:32;1.95;;;0.20;;
40815;SDS011;26535;48.788;9.214;2023-03-14T13:26:59;1.42;;;0.20;;
40815;SDS011;26535;48.788;9.214;2023-03-14T13:32:01;2.15;;;0.30;;
40815;SDS011;26535;48.788;9.214;2023-03-14T13:34:40;2.33;;;0.30;;
40815;SDS011;26535;48.788;9.214;2023-03-14T13:37:14;3.15;;;0.60;;
40815;SDS011;26535;48.788;9.214;2023-03-14T13:39:41;1.95;;;0.30;;
40815;SDS011;26535;48.788;9.214;2023-03-14T13:42:10;1.38;;;0.20;;
40815;SDS011;26535;48.788;9.214;2023-03-14T13:44:40;2.45;;;0.30;;
40815;SDS011;26535;48.788;9.214;2023-03-14T13:47:09;2.33;;;0.30;;
40815;SDS011;26535;48.788;9.214;2023-03-14T13:49:39;2.20;;;0.30;;
40815;SDS011;26535;48.788;9.214;2023-03-14T13:52:21;2.88;;;0.50;;
40815;SDS011;26535;48.788;9.214;2023-03-14T13:54:52;2.20;;;0.30;;
40815;SDS011;26535;48.788;9.214;2023-03-14T13:57:22;3.42;;;0.30;;
40815;SDS011;26535;48.788;9.214;2023-03-14T13:59:58;2.10;;;0.65;;
40815;SDS011;26535;48.788;9.214;2023-03-14T14:02:36;1.08;;;0.32;;
40815;SDS011;26535;48.788;9.214;2023-03-14T14:05:04;5.20;;;0.50;;
40815;SDS011;26535;48.788;9.214;2023-03-14T14:07:30;0.82;;;0.20;;
40815;SDS011;26535;48.788;9.214;2023-03-14T14:09:56;1.70;;;0.30;;
40815;SDS011;26535;48.788;9.214;2023-03-14T14:12:27;2.45;;;0.30;;
40815;SDS011;26535;48.788;9.214;2023-03-14T14:17:44;2.30;;;0.30;;
40815;SDS011;26535;48.788;9.214;2023-03-14T14:20:21;2.22;;;0.40;;
40815;SDS011;26535;48.788;9.214;2023-03-14T14:25:43;2.10;;;0.32;;
40815;SDS011;26535;48.788;9.214;2023-03-14T14:28:23;1.92;;;0.20;;
40815;SDS011;26535;48.788;9.214;2023-03-14T14:33:40;2.67;;;0.30;;
40815;SDS011;26535;48.788;9.214;2023-03-14T14:36:21;1.25;;;0.32;;
40815;SDS011;26535;48.788;9.214;2023-03-14T14:41:28;3.42;;;0.38;;
40815;SDS011;26535;48.788;9.214;2023-03-14T14:43:56;2.25;;;0.38;;
40815;SDS011;26535;48.788;9.214;2023-03-14T14:46:22;3.05;;;0.40;;
40815;SDS011;26535;48.788;9.214;2023-03-14T14:48:50;2.53;;;0.55;;
40815;SDS011;26535;48.788;9.214;2023-03-14T14:51:23;1.08;;;0.30;;
40815;SDS011;26535;48.788;9.214;2023-03-14T14:53:59;1.80;;;0.20;;
40815;SDS011;26535;48.788;9.214;2023-03-14T14:56:30;3.20;;;0.50;;
40815;SDS011;26535;48.788;9.214;2023-03-14T14:59:01;1.98;;;0.35;;
40815;SDS011;26535;48.788;9.214;2023-03-14T15:01:36;2.47;;;0.40;;
40815;SDS011;26535;48.788;9.214;2023-03-14T15:04:09;3.15;;;0.40;;
40815;SDS011;26535;48.788;9.214;2023-03-14T15:06:39;5.03;;;0.60;;
40815;SDS011;26535;48.788;9.214;2023-03-14T15:09:08;4.18;;;0.55;;
40815;SDS011;26535;48.788;9.214;2023-03-14T15:11:36;3.90;;;0.50;;
40815;SDS011;26535;48.788;9.214;2023-03-14T15:14:02;3.75;;;0.50;;
40815;SDS011;26535;48.788;9.214;2023-03-14T15:16:29;2.85;;;0.50;;
40815;SDS011;26535;48.788;9.214;2023-03-14T15:18:56;4.40;;;0.60;;
40815;SDS011;26535;48.788;9.214;2023-03-14T15:21:24;6.22;;;0.63;;
40815;SDS011;26535;48.788;9.214;2023-03-14T15:23:50;2.65;;;0.50;;
40815;SDS011;26535;48.788;9.214;2023-03-14T15:26:17;4.45;;;0.60;;
40815;SDS011;26535;48.788;9.214;2023-03-14T15:28:46;3.17;;;0.40;;
40815;SDS011;26535;48.788;9.214;2023-03-14T15:31:12;2.50;;;0.73;;
40815;SDS011;26535;48.788;9.214;2023-03-14T15:33:39;1.65;;;0.40;;
40815;SDS011;26535;48.788;9.214;2023-03-14T15:36:06;3.13;;;0.50;;
40815;SDS011;26535;48.788;9.214;2023-03-14T15:38:45;4.22;;;0.90;;
40815;SDS011;26535;48.788;9.214;2023-03-14T15:41:11;1.95;;;0.40;;
40815;SDS011;26535;48.788;9.214;2023-03-14T15:43:37;2.47;;;0.30;;
40815;SDS011;26535;48.788;9.214;2023-03-14T15:46:02;3.38;;;0.60;;
40815;SDS011;26535;48.788;9.214;2023-03-14T15:48:31;3.03;;;0.50;;
40815;SDS011;26535;48.788;9.214;2023-03-14T15:50:56;3.55;;;0.63;;
40815;SDS011;26535;48.788;9.214;2023-03-14T15:53:22;2.70;;;0.50;;
40815;SDS011;26535;48.788;9.214;2023-03-14T15:55:48;3.05;;;0.60;;
40815;SDS011;26535;48.788;9.214;2023-03-14T15:58:15;2.05;;;0.30;;
40815;SDS011;26535;48.788;9.214;2023-03-14T16:03:08;1.70;;;0.50;;
40815;SDS011;26535;48.788;9.214;2023-03-14T16:05:33;4.00;;;0.80;;
40815;SDS011;26535;48.788;9.214;2023-03-14T16:07:59;1.67;;;0.30;;
40815;SDS011;26535;48.788;9.214;2023-03-14T16:10:26;3.53;;;0.57;;
40815;SDS011;26535;48.788;9.214;2023-03-14T16:12:52;2.20;;;0.43;;
40815;SDS011;26535;48.788;9.214;2023-03-14T16:15:18;2.72;;;0.43;;
40815;SDS011;26535;48.788;9.214;2023-03-14T16:17:43;2.80;;;0.40;;
40815;SDS011;26535;48.788;9.214;2023-03-14T16:20:09;2.38;;;0.40;;
40815;SDS011;26535;48.788;9.214;2023-03-14T16:22:36;1.98;;;0.50;;
40815;SDS011;26535;48.788;9.214;2023-03-14T16:25:04;2.22;;;0.73;;
40815;SDS011;26535;48.788;9.214;2023-03-14T16:27:31;3.28;;;0.50;;
40815;SDS011;26535;48.788;9.214;2023-03-14T16:29:58;2.75;;;0.50;;
40815;SDS011;26535;48.788;9.214;2023-03-14T16:32:27;3.58;;;0.50;;
40815;SDS011;26535;48.788;9.214;2023-03-14T16:34:52;4.13;;;0.80;;
40815;SDS011;26535;48.788;9.214;2023-03-14T16:37:18;2.63;;;0.57;;
40815;SDS011;26535;48.788;9.214;2023-03-14T16:39:48;4.18;;;0.85;;
40815;SDS011;26535;48.788;9.214;2023-03-14T16:42:17;4.72;;;0.63;;
40815;SDS011;26535;48.788;9.214;2023-03-14T16:44:43;5.60;;;0.70;;
40815;SDS011;26535;48.788;9.214;2023-03-14T16:47:09;5.45;;;0.70;;
40815;SDS011;26535;48.788;9.214;2023-03-14T16:49:35;3.47;;;0.43;;
40815;SDS011;26535;48.788;9.214;2023-03-14T16:52:01;4.38;;;0.85;;
40815;SDS011;26535;48.788;9.214;2023-03-14T16:54:27;7.03;;;1.50;;
40815;SDS011;26535;48.788;9.214;2023-03-14T16:56:53;5.07;;;1.25;;
40815;SDS011;26535;48.788;9.214;2023-03-14T16:59:19;4.68;;;0.65;;
40815;SDS011;26535;48.788;9.214;2023-03-14T17:01:44;1.85;;;0.60;;
40815;SDS011;26535;48.788;9.214;2023-03-14T17:04:10;3.83;;;0.80;;
40815;SDS011;26535;48.788;9.214;2023-03-14T17:06:39;3.00;;;0.60;;
40815;SDS011;26535;48.788;9.214;2023-03-14T17:09:12;3.90;;;0.60;;
40815;SDS011;26535;48.788;9.214;2023-03-14T17:11:41;4.30;;;0.80;;
40815;SDS011;26535;48.788;9.214;2023-03-14T17:14:06;4.40;;;0.60;;
40815;SDS011;26535;48.788;9.214;2023-03-14T17:16:32;4.35;;;0.80;;
40815;SDS011;26535;48.788;9.214;2023-03-14T17:18:58;3.50;;;0.80;;
40815;SDS011;26535;48.788;9.214;2023-03-14T17:21:23;2.80;;;0.77;;
40815;SDS011;26535;48.788;9.214;2023-03-14T17:23:49;4.40;;;0.70;;
40815;SDS011;26535;48.788;9.214;2023-03-14T17:26:18;3.92;;;0.98;;
40815;SDS011;26535;48.788;9.214;2023-03-14T17:28:44;2.53;;;0.57;;
40815;SDS011;26535;48.788;9.214;2023-03-14T17:31:17;3.75;;;0.68;;
40815;SDS011;26535;48.788;9.214;2023-03-14T17:33:43;4.20;;;0.70;;
40815;SDS011;26535;48.788;9.214;2023-03-14T17:36:09;4.75;;;0.85;;
40815;SDS011;26535;48.788;9.214;2023-03-14T17:38:37;4.03;;;0.98;;
40815;SDS011;26535;48.788;9.214;2023-03-14T17:41:07;4.15;;;0.80;;
40815;SDS011;26535;48.788;9.214;2023-03-14T17:43:40;7.50;;;1.08;;
40815;SDS011;26535;48.788;9.214;2023-03-14T17:46:06;3.10;;;0.50;;
40815;SDS011;26535;48.788;9.214;2023-03-14T17:48:45;4.50;;;1.00;;
40815;SDS011;26535;48.788;9.214;2023-03-14T17:51:16;4.22;;;0.90;;
40815;SDS011;26535;48.788;9.214;2023-03-14T17:53:42;6.65;;;1.23;;
40815;SDS011;26535;48.788;9.214;2023-03-14T17:56:08;6.10;;;0.88;;
40815;SDS011;26535;48.788;9.214;2023-03-14T17:58:34;4.07;;;0.90;;
40815;SDS011;26535;48.788;9.214;2023-03-14T18:01:10;2.55;;;0.80;;
40815;SDS011;26535;48.788;9.214;2023-03-14T18:03:37;5.20;;;0.80;;
40815;SDS011;26535;48.788;9.214;2023-03-14T18:06:04;5.00;;;0.77;;
40815;SDS011;26535;48.788;9.214;2023-03-14T18:08:31;6.00;;;1.10;;
40815;SDS011;26535;48.788;9.214;2023-03-14T18:10:56;6.53;;;0.77;;
40815;SDS011;26535;48.788;9.214;2023-03-14T18:13:22;9.57;;;0.88;;
40815;SDS011;26535;48.788;9.214;2023-03-14T18:15:48;4.45;;;1.10;;
40815;SDS011;26535;48.788;9.214;2023-03-14T18:18:13;7.22;;;1.10;;
40815;SDS011;26535;48.788;9.214;2023-03-14T18:20:39;4.38;;;1.40;;
40815;SDS011;26535;48.788;9.214;2023-03-14T18:23:05;6.47;;;1.50;;
40815;SDS011;26535;48.788;9.214;2023-03-14T18:25:31;6.28;;;1.17;;
40815;SDS011;26535;48.788;9.214;2023-03-14T18:27:57;3.38;;;1.27;;
40815;SDS011;26535;48.788;9.214;2023-03-14T18:30:23;4.85;;;1.40;;
40815;SDS011;26535;48.788;9.214;2023-03-14T18:32:49;2.45;;;1.00;;
40815;SDS011;26535;48.788;9.214;2023-03-14T18:35:15;4.95;;;1.23;;
40815;SDS011;26535;48.788;9.214;2023-03-14T18:37:41;5.72;;;3.10;;
40815;SDS011;26535;48.788;9.214;2023-03-14T18:40:07;3.75;;;1.20;;
40815;SDS011;26535;48.788;9.214;2023-03-14T18:42:34;5.50;;;1.13;;
40815;SDS011;26535;48.788;9.214;2023-03-14T18:45:00;3.22;;;1.13;;
40815;SDS011;26535;48.788;9.214;2023-03-14T18:47:26;5.82;;;1.10;;
40815;SDS011;26535;48.788;9.214;2023-03-14T18:49:51;3.58;;;1.10;;
40815;SDS011;26535;48.788;9.214;2023-03-14T18:52:17;5.38;;;1.48;;
40815;SDS011;26535;48.788;9.214;2023-03-14T18:54:43;4.35;;;1.00;;
40815;SDS011;26535;48.788;9.214;2023-03-14T18:57:08;4.63;;;1.10;;
40815;SDS011;26535;48.788;9.214;2023-03-14T18:59:34;3.38;;;0.70;;
40815;SDS011;26535;48.788;9.214;2023-03-14T19:02:00;2.65;;;0.70;;
40815;SDS011;26535;48.788;9.214;2023-03-14T19:04:25;3.63;;;0.98;;
40815;SDS011;26535;48.788;9.214;2023-03-14T19:06:51;2.42;;;1.15;;
40815;SDS011;26535;48.788;9.214;2023-03-14T19:09:18;3.60;;;0.60;;
40815;SDS011;26535;48.788;9.214;2023-03-14T19:11:44;3.60;;;0.68;;
40815;SDS011;26535;48.788;9.214;2023-03-14T19:14:10;2.42;;;0.80;;
40815;SDS011;26535;48.788;9.214;2023-03-14T19:16:39;3.38;;;0.80;;
40815;SDS011;26535;48.788;9.214;2023-03-14T19:19:05;4.57;;;0.88;;
40815;SDS011;26535;48.788;9.214;2023-03-14T19:21:32;3.17;;;0.63;;
40815;SDS011;26535;48.788;9.214;2023-03-14T19:23:59;7.73;;;0.73;;
40815;SDS011;26535;48.788;9.214;2023-03-14T19:26:25;4.07;;;0.60;;
40815;SDS011;26535;48.788;9.214;2023-03-14T19:31:19;3.30;;;0.82;;
40815;SDS011;26535;48.788;9.214;2023-03-14T19:33:45;3.30;;;1.13;;
40815;SDS011;26535;48.788;9.214;2023-03-14T19:36:24;4.10;;;0.63;;
40815;SDS011;26535;48.788;9.214;2023-03-14T19:38:52;4.32;;;0.70;;
40815;SDS011;26535;48.788;9.214;2023-03-14T19:41:19;3.17;;;0.73;;
40815;SDS011;26535;48.788;9.214;2023-03-14T19:43:46;3.37;;;0.60;;
40815;SDS011;26535;48.788;9.214;2023-03-14T19:46:11;2.05;;;0.60;;
40815;SDS011;26535;48.788;9.214;2023-03-14T19:48:37;5.60;;;1.13;;
40815;SDS011;26535;48.788;9.214;2023-03-14T19:51:03;2.42;;;0.70;;
40815;SDS011;26535;48.788;9.214;2023-03-14T19:53:29;4.20;;;1.23;;
40815;SDS011;26535;48.788;9.214;2023-03-14T19:55:55;3.90;;;0.90;;
40815;SDS011;26535;48.788;9.214;2023-03-14T19:58:21;4.93;;;0.60;;
40815;SDS011;26535;48.788;9.214;2023-03-14T20:00:47;2.63;;;0.50;;
40815;SDS011;26535;48.788;9.214;2023-03-14T20:03:14;3.90;;;0.60;;
40815;SDS011;26535;48.788;9.214;2023-03-14T20:05:40;1.58;;;0.60;;
40815;SDS011;26535;48.788;9.214;2023-03-14T20:08:08;3.05;;;0.88;;
40815;SDS011;26535;48.788;9.214;2023-03-14T20:10:35;3.03;;;0.93;;
40815;SDS011;26535;48.788;9.214;2023-03-14T20:13:01;3.20;;;0.90;;
40815;SDS011;26535;48.788;9.214;2023-03-14T20:15:26;2.67;;;0.68;;
40815;SDS011;26535;48.788;9.214;2023-03-14T20:17:52;4.32;;;0.80;;
40815;SDS011;26535;48.788;9.214;2023-03-14T20:20:18;4.25;;;0.75;;
40815;SDS011;26535;48.788;9.214;2023-03-14T20:22:45;4.93;;;1.00;;
40815;SDS011;26535;48.788;9.214;2023-03-14T20:25:13;3.38;;;1.05;;
40815;SDS011;26535;48.788;9.214;2023-03-14T20:27:47;2.25;;;0.82;;
40815;SDS011;26535;48.788;9.214;2023-03-14T20:30:15;4.45;;;1.05;;
40815;SDS011;26535;48.788;9.214;2023-03-14T20:32:43;5.57;;;1.10;;
40815;SDS011;26535;48.788;9.214;2023-03-14T20:35:10;4.32;;;1.60;;
40815;SDS011;26535;48.788;9.214;2023-03-14T20:37:48;3.70;;;1.33;;
40815;SDS011;26535;48.788;9.214;2023-03-14T20:40:18;4.38;;;1.50;;
40815;SDS011;26535;48.788;9.214;2023-03-14T20:42:44;4.60;;;1.10;;
40815;SDS011;26535;48.788;9.214;2023-03-14T20:45:10;4.38;;;1.20;;
40815;SDS011;26535;48.788;9.214;2023-03-14T20:47:36;2.80;;;0.93;;
40815;SDS011;26535;48.788;9.214;2023-03-14T20:50:02;4.70;;;1.38;;
40815;SDS011;26535;48.788;9.214;2023-03-14T20:52:28;3.88;;;1.02;;
40815;SDS011;26535;48.788;9.214;2023-03-14T20:54:54;4.13;;;1.02;;
40815;SDS011;26535;48.788;9.214;2023-03-14T20:57:20;3.95;;;1.15;;
40815;SDS011;26535;48.788;9.214;2023-03-14T20:59:46;3.15;;;1.10;;
40815;SDS011;26535;48.788;9.214;2023-03-14T21:02:12;6.07;;;1.05;;
40815;SDS011;26535;48.788;9.214;2023-03-14T21:04:38;4.85;;;1.10;;
40815;SDS011;26535;48.788;9.214;2023-03-14T21:07:04;3.92;;;0.82;;
40815;SDS011;26535;48.788;9.214;2023-03-14T21:09:29;3.38;;;1.35;;
40815;SDS011;26535;48.788;9.214;2023-03-14T21:11:55;5.03;;;0.90;;
40815;SDS011;26535;48.788;9.214;2023-03-14T21:14:21;2.70;;;1.13;;
40815;SDS011;26535;48.788;9.214;2023-03-14T21:16:47;2.33;;;1.00;;
40815;SDS011;26535;48.788;9.214;2023-03-14T21:19:14;2.95;;;0.88;;
40815;SDS011;26535;48.788;9.214;2023-03-14T21:21:40;4.53;;;1.42;;
40815;SDS011;26535;48.788;9.214;2023-03-14T21:24:06;3.20;;;1.10;;
40815;SDS011;26535;48.788;9.214;2023-03-14T21:26:32;5.88;;;0.98;;
40815;SDS011;26535;48.788;9.214;2023-03-14T21:28:58;3.40;;;0.88;;
40815;SDS011;26535;48.788;9.214;2023-03-14T21:31:28;3.90;;;0.60;;
40815;SDS011;26535;48.788;9.214;2023-03-14T21:33:54;3.47;;;0.77;;